createdAt,value
2019-02-20T00:02:11.789Z,3.20
2019-02-20T00:04:52.439Z,3.10
2019-02-20T00:07:23.779Z,3.10
2019-02-20T00:09:55.109Z,3.00
2019-02-20T00:12:26.485Z,3.00
2019-02-20T00:14:57.728Z,2.90
2019-02-20T00:17:29.070Z,2.90
2019-02-20T00:20:00.409Z,2.90
2019-02-20T00:22:40.038Z,2.80
2019-02-20T00:25:06.505Z,2.70
2019-02-20T00:27:37.904Z,2.70
2019-02-20T00:30:11.290Z,2.60
2019-02-20T00:32:42.644Z,2.60
2019-02-20T00:35:14.118Z,2.50
2019-02-20T00:37:45.386Z,2.50
2019-02-20T00:40:16.642Z,2.40
2019-02-20T00:42:48.165Z,2.40
2019-02-20T00:45:29.406Z,2.40
2019-02-20T00:48:02.355Z,2.30
2019-02-20T00:50:35.280Z,2.30
2019-02-20T00:53:14.375Z,2.20
2019-02-20T00:55:45.708Z,2.10
2019-02-20T00:58:17.009Z,2.00
2019-02-20T01:00:48.416Z,2.00
2019-02-20T01:03:20.586Z,1.90
2019-02-20T01:05:51.933Z,1.80
2019-02-20T01:08:23.325Z,1.80
2019-02-20T01:11:00.460Z,1.80
2019-02-20T01:13:32.213Z,1.80
2019-02-20T01:16:03.789Z,1.80
2019-02-20T01:18:35.183Z,1.80
2019-02-20T01:21:06.857Z,1.70
2019-02-20T01:23:38.191Z,1.70
2019-02-20T01:26:09.585Z,1.60
2019-02-20T01:28:40.981Z,1.60
2019-02-20T01:31:12.294Z,1.60
2019-02-20T01:33:43.635Z,1.50
2019-02-20T01:36:15.024Z,1.50
2019-02-20T01:38:46.298Z,1.40
2019-02-20T01:41:17.689Z,1.30
2019-02-20T01:43:49.110Z,1.30
2019-02-20T01:46:20.516Z,1.30
2019-02-20T01:48:51.830Z,1.30
2019-02-20T01:51:23.220Z,1.30
2019-02-20T01:53:54.486Z,1.30
2019-02-20T01:56:26.879Z,1.20
2019-02-20T01:58:58.234Z,1.20
2019-02-20T02:01:29.560Z,1.10
2019-02-20T02:04:02.319Z,1.00
2019-02-20T02:06:34.883Z,1.00
2019-02-20T02:09:07.859Z,1.00
2019-02-20T02:11:40.033Z,1.00
2019-02-20T02:14:11.447Z,1.00
2019-02-20T02:16:42.846Z,0.90
2019-02-20T02:19:18.027Z,1.00
2019-02-20T02:21:49.334Z,1.00
2019-02-20T02:24:20.814Z,1.00
2019-02-20T02:26:52.340Z,1.00
2019-02-20T02:29:23.776Z,1.00
2019-02-20T02:31:55.110Z,1.00
2019-02-20T02:34:26.473Z,1.00
2019-02-20T02:36:57.749Z,1.00
2019-02-20T02:39:29.043Z,1.00
2019-02-20T02:42:00.314Z,1.10
2019-02-20T02:44:31.841Z,1.10
2019-02-20T02:47:03.169Z,1.20
2019-02-20T02:49:35.505Z,1.30
2019-02-20T02:52:06.806Z,1.30
2019-02-20T02:54:38.287Z,1.30
2019-02-20T02:57:09.731Z,1.40
2019-02-20T02:59:41.149Z,1.40
2019-02-20T03:02:12.562Z,1.40
2019-02-20T03:04:44.788Z,1.50
2019-02-20T03:07:16.236Z,1.50
2019-02-20T03:09:47.534Z,1.50
2019-02-20T03:12:18.982Z,1.40
2019-02-20T03:14:50.663Z,1.30
2019-02-20T03:17:21.970Z,1.30
2019-02-20T03:19:53.414Z,1.20
2019-02-20T03:22:25.027Z,1.10
2019-02-20T03:24:59.586Z,1.00
2019-02-20T03:27:30.984Z,1.00
2019-02-20T03:30:18.654Z,0.90
2019-02-20T03:32:50.274Z,0.90
2019-02-20T03:35:22.691Z,0.90
2019-02-20T03:37:54.182Z,1.00
2019-02-20T03:40:25.624Z,1.00
2019-02-20T03:42:56.923Z,1.00
2019-02-20T03:45:28.359Z,1.00
2019-02-20T03:47:59.622Z,1.00
2019-02-20T03:50:31.034Z,1.00
2019-02-20T03:53:02.454Z,1.00
2019-02-20T03:55:33.790Z,1.00
2019-02-20T03:58:05.111Z,0.90
2019-02-20T04:00:36.580Z,0.90
2019-02-20T04:03:10.292Z,0.90
2019-02-20T04:05:42.329Z,0.90
2019-02-20T04:08:13.696Z,0.90
2019-02-20T04:10:45.320Z,0.90
2019-02-20T04:13:16.572Z,0.80
2019-02-20T04:15:49.973Z,0.90
2019-02-20T04:18:21.584Z,0.90
2019-02-20T04:20:52.989Z,0.90
2019-02-20T04:23:24.416Z,0.90
2019-02-20T04:25:55.880Z,0.80
2019-02-20T04:28:27.556Z,0.70
2019-02-20T04:30:59.264Z,0.70
2019-02-20T04:33:30.676Z,0.70
2019-02-20T04:36:02.402Z,0.60
2019-02-20T04:38:33.985Z,0.70
2019-02-20T04:41:05.689Z,0.70
2019-02-20T04:43:37.159Z,0.70
2019-02-20T04:46:08.673Z,0.70
2019-02-20T04:48:40.210Z,0.70
2019-02-20T04:51:11.505Z,0.70
2019-02-20T04:53:43.004Z,0.60
2019-02-20T04:56:14.427Z,0.50
2019-02-20T04:58:47.456Z,0.50
2019-02-20T05:01:20.167Z,0.40
2019-02-20T05:03:52.771Z,0.40
2019-02-20T05:06:24.107Z,0.40
2019-02-20T05:08:55.467Z,0.40
2019-02-20T05:11:26.929Z,0.40
2019-02-20T05:13:58.412Z,0.30
2019-02-20T05:16:30.307Z,0.30
2019-02-20T05:19:01.849Z,0.30
2019-02-20T05:21:33.469Z,0.30
2019-02-20T05:24:05.124Z,0.30
2019-02-20T05:26:36.672Z,0.30
2019-02-20T05:29:08.139Z,0.20
2019-02-20T05:31:45.108Z,0.20
2019-02-20T05:34:24.346Z,0.20
2019-02-20T05:36:55.624Z,0.20
2019-02-20T05:39:27.256Z,0.20
2019-02-20T05:41:58.593Z,0.20
2019-02-20T05:44:29.986Z,0.10
2019-02-20T05:47:01.421Z,0.10
2019-02-20T05:49:32.764Z,0.10
2019-02-20T05:52:04.193Z,0.10
2019-02-20T05:54:35.629Z,0.10
2019-02-20T05:57:06.907Z,0.10
2019-02-20T05:59:38.299Z,0.10
2019-02-20T06:02:09.650Z,0.00
2019-02-20T06:04:41.002Z,0.00
2019-02-20T06:07:12.377Z,-0.10
2019-02-20T06:09:44.795Z,-0.10
2019-02-20T06:12:16.535Z,-0.10
2019-02-20T06:14:48.187Z,-0.10
2019-02-20T06:17:19.613Z,-0.10
2019-02-20T06:19:51.013Z,-0.10
2019-02-20T06:22:22.346Z,-0.10
2019-02-20T06:24:53.693Z,-0.10
2019-02-20T06:27:24.987Z,0.00
2019-02-20T06:29:56.380Z,0.00
2019-02-20T06:32:27.723Z,0.00
2019-02-20T06:34:59.028Z,0.00
2019-02-20T06:37:30.316Z,0.00
2019-02-20T06:40:01.669Z,0.00
2019-02-20T06:42:33.100Z,0.00
2019-02-20T06:45:06.770Z,0.00
2019-02-20T06:47:38.151Z,0.00
2019-02-20T06:50:09.909Z,0.00
2019-02-20T06:52:41.174Z,0.00
2019-02-20T06:55:13.463Z,0.00
2019-02-20T06:57:44.735Z,0.00
2019-02-20T07:00:16.290Z,0.10
2019-02-20T07:02:47.640Z,0.10
2019-02-20T07:05:32.648Z,0.10
2019-02-20T07:08:40.212Z,0.10
2019-02-20T07:11:37.540Z,0.10
2019-02-20T07:14:41.042Z,0.10
2019-02-20T07:17:25.940Z,0.20
2019-02-20T07:20:16.315Z,0.20
2019-02-20T07:23:22.447Z,0.20
2019-02-20T07:26:33.022Z,0.20
2019-02-20T07:29:20.434Z,0.20
2019-02-20T07:31:51.823Z,0.30
2019-02-20T07:34:24.320Z,0.30
2019-02-20T07:36:55.644Z,0.40
2019-02-20T07:39:26.960Z,0.40
2019-02-20T07:41:58.272Z,0.50
2019-02-20T07:44:29.678Z,0.50
2019-02-20T07:47:00.991Z,0.60
2019-02-20T07:49:32.325Z,0.60
2019-02-20T07:52:03.655Z,0.70
2019-02-20T07:54:35.007Z,0.70
2019-02-20T07:57:06.481Z,0.80
2019-02-20T07:59:37.752Z,0.90
2019-02-20T08:02:09.259Z,0.90
2019-02-20T08:04:40.585Z,1.00
2019-02-20T08:07:11.908Z,1.00
2019-02-20T08:09:43.344Z,1.00
2019-02-20T08:12:14.737Z,1.10
2019-02-20T08:14:46.176Z,1.20
2019-02-20T08:17:17.553Z,1.20
2019-02-20T08:19:48.982Z,1.30
2019-02-20T08:22:20.345Z,1.40
2019-02-20T08:24:51.657Z,1.50
2019-02-20T08:27:23.013Z,1.60
2019-02-20T08:29:54.356Z,1.70
2019-02-20T08:32:25.724Z,1.80
2019-02-20T08:34:56.999Z,1.90
2019-02-20T08:37:28.312Z,2.00
2019-02-20T08:39:59.566Z,2.10
2019-02-20T08:42:30.955Z,2.10
2019-02-20T08:45:02.303Z,2.20
2019-02-20T08:47:33.683Z,2.40
2019-02-20T08:50:10.455Z,2.40
2019-02-20T08:52:42.004Z,2.50
2019-02-20T08:55:13.451Z,2.60
2019-02-20T08:57:44.867Z,2.70
2019-02-20T09:00:16.516Z,2.70
2019-02-20T09:02:47.949Z,2.80
2019-02-20T09:05:19.358Z,2.90
2019-02-20T09:07:50.617Z,2.90
2019-02-20T09:10:23.339Z,3.00
2019-02-20T09:12:54.666Z,3.10
2019-02-20T09:15:27.816Z,3.20
2019-02-20T09:17:59.066Z,3.30
2019-02-20T09:20:30.448Z,3.40
2019-02-20T09:23:01.701Z,3.50
2019-02-20T09:25:41.312Z,3.50
2019-02-20T09:28:06.100Z,3.60
2019-02-20T09:30:37.535Z,3.70
2019-02-20T09:33:08.889Z,3.80
2019-02-20T09:35:40.214Z,3.80
2019-02-20T09:38:11.540Z,4.00
2019-02-20T09:40:42.884Z,4.10
2019-02-20T09:43:14.198Z,4.20
2019-02-20T09:45:45.550Z,4.30
2019-02-20T09:48:16.950Z,4.50
2019-02-20T09:50:49.417Z,4.60
2019-02-20T09:53:20.689Z,4.70
2019-02-20T09:55:52.117Z,4.80
2019-02-20T09:58:23.538Z,4.90
2019-02-20T10:00:54.930Z,5.00
2019-02-20T10:03:26.276Z,5.20
2019-02-20T10:05:57.681Z,5.30
2019-02-20T10:08:30.123Z,5.40
2019-02-20T10:11:01.407Z,5.60
2019-02-20T10:13:32.924Z,5.80
2019-02-20T10:16:04.212Z,5.90
2019-02-20T10:18:35.623Z,6.00
2019-02-20T10:21:07.025Z,6.10
2019-02-20T10:23:38.294Z,6.20
2019-02-20T10:26:09.600Z,6.30
2019-02-20T10:28:41.908Z,6.40
2019-02-20T10:31:13.245Z,6.60
2019-02-20T10:33:44.647Z,6.70
2019-02-20T10:36:16.144Z,7.00
2019-02-20T10:38:47.394Z,7.10
2019-02-20T10:41:18.741Z,7.20
2019-02-20T10:43:51.229Z,7.40
2019-02-20T10:46:22.577Z,7.40
2019-02-20T10:48:53.913Z,7.50
2019-02-20T10:51:25.337Z,7.60
2019-02-20T10:53:56.693Z,7.80
2019-02-20T10:56:28.032Z,7.80
2019-02-20T10:58:59.376Z,7.90
2019-02-20T11:01:30.817Z,8.00
2019-02-20T11:04:02.101Z,8.20
2019-02-20T11:06:33.699Z,8.30
2019-02-20T11:09:06.600Z,8.40
2019-02-20T11:11:39.534Z,8.50
2019-02-20T11:14:11.076Z,8.70
2019-02-20T11:16:42.423Z,8.80
2019-02-20T11:19:15.606Z,8.90
2019-02-20T11:21:46.782Z,9.00
2019-02-20T11:24:18.138Z,9.00
2019-02-20T11:26:54.282Z,9.20
2019-02-20T11:29:23.602Z,9.20
2019-02-20T11:31:56.509Z,9.40
2019-02-20T11:34:27.941Z,9.50
2019-02-20T11:36:59.219Z,9.70
2019-02-20T11:39:37.554Z,9.80
2019-02-20T11:42:03.776Z,10.00
2019-02-20T11:44:35.305Z,10.20
2019-02-20T11:47:06.723Z,10.20
2019-02-20T11:49:38.149Z,10.30
2019-02-20T11:52:09.430Z,10.50
2019-02-20T11:54:41.025Z,10.60
2019-02-20T11:57:13.940Z,10.70
2019-02-20T11:59:45.470Z,10.80
2019-02-20T12:02:16.754Z,10.90
2019-02-20T12:04:48.180Z,10.90
2019-02-20T12:07:19.610Z,11.10
2019-02-20T12:09:51.018Z,11.30
2019-02-20T12:12:22.467Z,11.40
2019-02-20T12:14:53.937Z,11.40
2019-02-20T12:17:25.291Z,11.40
2019-02-20T12:19:56.704Z,11.50
2019-02-20T12:22:28.255Z,11.60
2019-02-20T12:24:59.687Z,11.90
2019-02-20T12:27:31.020Z,12.20
2019-02-20T12:30:02.581Z,12.40
2019-02-20T12:32:35.685Z,12.60
2019-02-20T12:35:08.995Z,12.70
2019-02-20T12:37:40.516Z,12.90
2019-02-20T12:40:12.305Z,13.00
2019-02-20T12:42:43.601Z,13.10
2019-02-20T12:45:15.015Z,13.20
2019-02-20T12:47:46.451Z,13.30
2019-02-20T12:50:17.924Z,13.30
2019-02-20T12:52:49.211Z,13.30
2019-02-20T12:55:20.544Z,13.30
2019-02-20T12:57:51.912Z,13.30
2019-02-20T13:00:23.410Z,13.30
2019-02-20T13:02:54.753Z,13.30
2019-02-20T13:05:26.304Z,13.10
2019-02-20T13:07:57.555Z,13.00
2019-02-20T13:10:28.951Z,13.00
2019-02-20T13:13:00.299Z,12.90
2019-02-20T13:15:32.908Z,13.00
2019-02-20T13:18:04.326Z,13.00
2019-02-20T13:20:35.803Z,13.10
2019-02-20T13:23:07.164Z,13.10
2019-02-20T13:25:47.962Z,13.20
2019-02-20T13:28:19.247Z,13.30
2019-02-20T13:30:50.572Z,13.40
2019-02-20T13:33:21.841Z,13.40
2019-02-20T13:35:53.163Z,13.40
2019-02-20T13:38:24.525Z,13.50
2019-02-20T13:40:55.935Z,13.70
2019-02-20T13:43:27.489Z,13.90
2019-02-20T13:45:59.084Z,14.00
2019-02-20T13:48:30.594Z,13.90
2019-02-20T13:51:01.987Z,13.90
2019-02-20T13:53:33.718Z,13.80
2019-02-20T13:56:05.269Z,13.70
2019-02-20T13:58:37.170Z,13.70
2019-02-20T14:01:08.603Z,13.60
2019-02-20T14:03:42.358Z,13.60
2019-02-20T14:06:16.022Z,13.50
2019-02-20T14:08:47.694Z,13.40
2019-02-20T14:11:27.812Z,13.40
2019-02-20T14:13:59.274Z,13.30
2019-02-20T14:16:30.625Z,13.40
2019-02-20T14:19:03.107Z,13.40
2019-02-20T14:21:36.719Z,13.30
2019-02-20T14:24:08.269Z,13.20
2019-02-20T14:26:39.543Z,13.20
2019-02-20T14:29:11.945Z,13.20
2019-02-20T14:31:43.361Z,13.20
2019-02-20T14:34:15.004Z,13.10
2019-02-20T14:36:46.299Z,13.10
2019-02-20T14:39:17.695Z,13.10
2019-02-20T14:41:49.152Z,13.10
2019-02-20T14:44:20.633Z,13.10
2019-02-20T14:46:52.296Z,13.10
2019-02-20T14:49:23.634Z,13.10
2019-02-20T14:51:55.127Z,13.10
2019-02-20T14:54:45.770Z,13.00
2019-02-20T14:57:24.968Z,13.00
2019-02-20T14:59:56.390Z,12.90
2019-02-20T15:02:27.780Z,12.90
2019-02-20T15:04:59.133Z,13.00
2019-02-20T15:07:30.937Z,13.00
2019-02-20T15:10:02.787Z,12.90
2019-02-20T15:12:34.887Z,12.90
2019-02-20T15:15:12.560Z,12.80
2019-02-20T15:17:44.181Z,12.80
2019-02-20T15:20:15.913Z,12.70
2019-02-20T15:22:47.373Z,12.80
2019-02-20T15:25:18.710Z,12.80
2019-02-20T15:27:50.243Z,12.90
2019-02-20T15:30:21.751Z,13.00
2019-02-20T15:32:53.149Z,13.10
2019-02-20T15:35:24.632Z,13.20
2019-02-20T15:37:56.111Z,13.30
2019-02-20T15:40:37.806Z,13.50
2019-02-20T15:43:09.305Z,13.70
2019-02-20T15:45:42.304Z,13.80
2019-02-20T15:48:13.688Z,13.80
2019-02-20T15:50:45.059Z,13.70
2019-02-20T15:53:16.389Z,13.50
2019-02-20T15:55:47.819Z,13.30
2019-02-20T15:58:19.756Z,13.10
2019-02-20T16:00:50.351Z,13.10
2019-02-20T16:03:21.951Z,13.00
2019-02-20T16:05:54.390Z,13.00
2019-02-20T16:08:25.775Z,13.00
2019-02-20T16:10:57.125Z,12.90
2019-02-20T16:13:34.459Z,12.80
2019-02-20T16:16:06.070Z,12.70
2019-02-20T16:18:37.533Z,12.60
2019-02-20T16:21:10.099Z,12.60
2019-02-20T16:23:43.406Z,12.50
2019-02-20T16:26:14.989Z,12.40
2019-02-20T16:28:46.260Z,12.30
2019-02-20T16:31:19.336Z,12.30
2019-02-20T16:33:53.693Z,12.20
2019-02-20T16:36:25.769Z,12.10
2019-02-20T16:38:57.067Z,12.00
2019-02-20T16:41:28.467Z,12.00
2019-02-20T16:43:59.801Z,11.90
2019-02-20T16:46:32.274Z,11.80
2019-02-20T16:49:04.185Z,11.80
2019-02-20T16:51:40.616Z,11.80
2019-02-20T16:54:14.258Z,11.70
2019-02-20T16:56:45.690Z,11.60
2019-02-20T16:59:17.123Z,11.60
2019-02-20T17:01:49.150Z,11.50
2019-02-20T17:04:20.666Z,11.50
2019-02-20T17:06:53.820Z,11.40
2019-02-20T17:09:25.235Z,11.40
2019-02-20T17:11:58.868Z,11.40
2019-02-20T17:14:33.357Z,11.30
2019-02-20T17:17:04.885Z,11.30
2019-02-20T17:19:36.386Z,11.20
2019-02-20T17:22:16.494Z,11.10
2019-02-20T17:24:48.097Z,11.10
2019-02-20T17:27:31.856Z,11.00
2019-02-20T17:30:16.663Z,11.00
2019-02-20T17:32:50.514Z,11.00
2019-02-20T17:35:23.725Z,10.90
2019-02-20T17:37:55.237Z,10.80
2019-02-20T17:40:39.852Z,10.80
2019-02-20T17:43:11.832Z,10.70
2019-02-20T17:45:45.447Z,10.70
2019-02-20T17:48:19.130Z,10.60
2019-02-20T17:50:50.851Z,10.50
2019-02-20T17:53:22.296Z,10.40
2019-02-20T17:55:57.831Z,10.40
2019-02-20T17:58:30.438Z,10.30
2019-02-20T18:01:06.423Z,10.20
2019-02-20T18:03:37.955Z,10.20
2019-02-20T18:06:11.035Z,10.10
2019-02-20T18:08:42.577Z,10.10
2019-02-20T18:11:14.552Z,10.00
2019-02-20T18:13:46.159Z,9.90
2019-02-20T18:16:17.667Z,9.90
2019-02-20T18:18:49.095Z,9.80
2019-02-20T18:21:20.599Z,9.80
2019-02-20T18:23:52.168Z,9.80
2019-02-20T18:26:25.750Z,9.70
2019-02-20T18:28:57.656Z,9.70
2019-02-20T18:31:29.162Z,9.60
2019-02-20T18:34:03.080Z,9.60
2019-02-20T18:36:37.098Z,9.60
2019-02-20T18:39:08.775Z,9.50
2019-02-20T18:41:41.964Z,9.50
2019-02-20T18:44:16.310Z,9.40
2019-02-20T18:46:47.604Z,9.40
2019-02-20T18:49:21.242Z,9.30
2019-02-20T18:51:52.171Z,9.30
2019-02-20T18:54:23.834Z,9.20
2019-02-20T18:56:55.840Z,9.20
2019-02-20T18:59:27.187Z,9.20
2019-02-20T19:01:58.779Z,9.10
2019-02-20T19:04:30.294Z,9.00
2019-02-20T19:07:10.896Z,8.90
2019-02-20T19:09:46.869Z,8.80
2019-02-20T19:12:34.720Z,8.80
2019-02-20T19:15:37.799Z,8.70
2019-02-20T19:19:02.536Z,8.60
2019-02-20T19:21:54.223Z,8.50
2019-02-20T19:24:54.466Z,8.40
2019-02-20T19:28:01.113Z,8.30
2019-02-20T19:31:06.204Z,8.30
2019-02-20T19:33:51.158Z,8.20
2019-02-20T19:36:35.662Z,8.10
2019-02-20T19:39:33.694Z,8.00
2019-02-20T19:42:29.129Z,7.90
2019-02-20T19:45:33.858Z,7.70
2019-02-20T19:48:58.096Z,7.60
2019-02-20T19:51:58.150Z,7.50
2019-02-20T19:54:52.146Z,7.30
2019-02-20T19:57:40.616Z,7.10
2019-02-20T20:00:22.024Z,6.90
2019-02-20T20:03:01.455Z,6.80
2019-02-20T20:06:03.461Z,6.80
2019-02-20T20:08:57.989Z,6.70
2019-02-20T20:11:48.934Z,6.60
2019-02-20T20:14:36.956Z,6.50
2019-02-20T20:17:38.811Z,6.50
2019-02-20T20:20:32.713Z,6.40
2019-02-20T20:23:35.363Z,6.40
2019-02-20T20:26:40.017Z,6.30
2019-02-20T20:29:39.785Z,6.20
2019-02-20T20:32:19.074Z,6.20
2019-02-20T20:35:18.657Z,6.20
2019-02-20T20:37:57.446Z,6.20
2019-02-20T20:41:03.618Z,6.00
2019-02-20T20:43:57.694Z,6.00
2019-02-20T20:46:59.342Z,6.00
2019-02-20T20:49:41.695Z,6.00
2019-02-20T20:52:50.945Z,6.00
2019-02-20T20:55:49.378Z,6.10
2019-02-20T20:58:33.945Z,6.00
2019-02-20T21:01:15.473Z,5.90
2019-02-20T21:04:20.316Z,5.90
2019-02-20T21:07:17.258Z,5.90
2019-02-20T21:09:59.136Z,5.90
2019-02-20T21:12:49.869Z,5.80
2019-02-20T21:15:34.091Z,5.80
2019-02-20T21:18:52.523Z,5.80
2019-02-20T21:21:47.645Z,5.70
2019-02-20T21:24:49.513Z,5.50
2019-02-20T21:27:47.247Z,5.50
2019-02-20T21:30:28.866Z,5.40
2019-02-20T21:33:44.575Z,5.40
2019-02-20T21:36:28.892Z,5.40
2019-02-20T21:39:28.786Z,5.40
2019-02-20T21:42:29.225Z,5.40
2019-02-20T21:45:17.146Z,5.30
2019-02-20T21:48:10.988Z,5.30
2019-02-20T21:51:20.252Z,5.30
2019-02-20T21:54:04.994Z,5.30
2019-02-20T21:56:55.875Z,5.20
2019-02-20T21:59:43.822Z,5.20
2019-02-20T22:02:28.828Z,5.20
2019-02-20T22:05:19.735Z,5.20
2019-02-20T22:08:15.634Z,5.10
2019-02-20T22:11:11.287Z,5.10
2019-02-20T22:14:06.817Z,5.10
2019-02-20T22:16:45.682Z,5.10
2019-02-20T22:19:39.394Z,5.10
2019-02-20T22:22:33.455Z,5.10
2019-02-20T22:25:30.289Z,5.00
2019-02-20T22:28:33.920Z,4.90
2019-02-20T22:31:25.536Z,4.90
2019-02-20T22:34:19.448Z,4.90
2019-02-20T22:37:12.643Z,4.80
2019-02-20T22:40:15.866Z,4.80
2019-02-20T22:43:20.458Z,4.80
2019-02-20T22:46:20.385Z,4.80
2019-02-20T22:49:01.967Z,4.80
2019-02-20T22:52:05.048Z,4.80
2019-02-20T22:54:59.104Z,4.70
2019-02-20T22:57:59.320Z,4.70
2019-02-20T23:01:17.788Z,4.60
2019-02-20T23:04:15.642Z,4.60
2019-02-20T23:07:01.293Z,4.50
2019-02-20T23:09:46.239Z,4.50
2019-02-20T23:12:45.467Z,4.40
2019-02-20T23:15:16.937Z,4.40
2019-02-20T23:17:48.267Z,4.40
2019-02-20T23:20:19.663Z,4.30
2019-02-20T23:22:50.937Z,4.30
2019-02-20T23:25:22.243Z,4.30
2019-02-20T23:27:53.762Z,4.20
2019-02-20T23:30:25.093Z,4.20
2019-02-20T23:32:56.494Z,4.20
2019-02-20T23:35:28.631Z,4.10
2019-02-20T23:37:59.941Z,4.10
2019-02-20T23:40:31.220Z,4.00
2019-02-20T23:43:02.615Z,3.80
2019-02-20T23:45:33.968Z,3.80
2019-02-20T23:48:05.374Z,3.70
2019-02-20T23:50:38.112Z,3.70
2019-02-20T23:53:09.466Z,3.70
2019-02-20T23:55:40.780Z,3.70
2019-02-20T23:58:12.131Z,3.60
